Time;durP1;ratioP1;P1;durP2;ratioP2;P2;SDS_P1;SDS_P2;PMS_P1;PMS_P2;Temp;Humidity;BMP_temperature;BMP_pressure;BME280_temperature;BME280_humidity;BME280_pressure;Samples;Min_cycle;Max_cycle;Signal;HPM_P1;HPM_P2
2022/08/30 00:03:03;;;;;;;8.93;2.98;;;;;;;13.82;87.26;96950.94;1726468;81;21040;-85
2022/08/30 00:05:29;;;;;;;5.97;3.05;;;;;;;13.82;87.37;96949.13;1722612;81;20991;-85
2022/08/30 00:07:56;;;;;;;7.53;3.05;;;;;;;13.84;87.62;96952.09;1731961;81;20959;-86
2022/08/30 00:10:22;;;;;;;4.20;2.90;;;;;;;13.85;87.63;96950.59;1729808;81;20928;-85
2022/08/30 00:12:47;;;;;;;7.30;2.95;;;;;;;13.87;88.05;96953.81;1727713;81;20936;-85
2022/08/30 00:15:13;;;;;;;4.80;3.08;;;;;;;13.87;88.44;96954.31;1718430;81;21346;-86
2022/08/30 00:17:40;;;;;;;6.58;3.02;;;;;;;13.86;88.22;96954.01;1712858;81;21042;-85
2022/08/30 00:20:07;;;;;;;6.60;3.30;;;;;;;13.87;88.30;96955.13;1707330;82;20991;-84
2022/08/30 00:22:33;;;;;;;4.67;2.65;;;;;;;13.88;88.29;96958.05;1704061;83;21046;-85
2022/08/30 00:24:59;;;;;;;6.28;3.20;;;;;;;13.89;88.47;96954.93;1708527;81;21034;-85
2022/08/30 00:27:27;;;;;;;4.67;2.67;;;;;;;13.88;88.49;96953.31;1710169;83;20971;-85
2022/08/30 00:29:54;;;;;;;6.53;3.08;;;;;;;13.86;88.45;96956.12;1731858;81;21054;-85
2022/08/30 00:32:20;;;;;;;4.78;2.95;;;;;;;13.84;88.54;96953.39;1719933;81;21410;-85
2022/08/30 00:34:47;;;;;;;5.90;3.20;;;;;;;13.80;88.67;96951.13;1731381;81;21073;-84
2022/08/30 00:37:14;;;;;;;6.58;3.40;;;;;;;13.79;88.72;96953.93;1725460;81;20995;-84
2022/08/30 00:39:40;;;;;;;7.83;3.17;;;;;;;13.75;88.43;96953.50;1730658;81;21393;-85
2022/08/30 00:42:06;;;;;;;7.40;3.10;;;;;;;13.73;88.96;96953.39;1730142;81;21035;-84
2022/08/30 00:44:32;;;;;;;7.40;2.72;;;;;;;13.72;89.21;96947.36;1717518;81;20979;-85
2022/08/30 00:46:58;;;;;;;5.70;3.27;;;;;;;13.71;89.55;96949.66;1726578;81;20955;-85
2022/08/30 00:49:24;;;;;;;6.12;3.75;;;;;;;13.72;89.62;96954.38;1723973;81;21311;-85
2022/08/30 00:51:50;;;;;;;5.35;2.83;;;;;;;13.71;89.22;96957.49;1685774;81;21003;-84
2022/08/30 00:54:15;;;;;;;5.62;3.17;;;;;;;13.72;89.30;96954.38;1711271;81;21683;-84
2022/08/30 00:56:42;;;;;;;7.42;2.50;;;;;;;13.74;89.44;96951.08;1716314;81;20981;-84
2022/08/30 00:59:08;;;;;;;6.15;2.75;;;;;;;13.74;89.49;96947.16;1730480;81;21396;-86
2022/08/30 01:01:34;;;;;;;4.97;2.92;;;;;;;13.72;89.48;96949.97;1729601;81;20947;-86
2022/08/30 01:04:00;;;;;;;6.78;2.67;;;;;;;13.72;89.64;96948.66;1727658;81;20971;-85
2022/08/30 01:06:26;;;;;;;6.95;2.90;;;;;;;13.72;89.31;96946.55;1714279;81;20990;-85
2022/08/30 01:08:52;;;;;;;5.53;2.60;;;;;;;13.70;88.89;96951.96;1721185;81;21983;-84
2022/08/30 01:11:20;;;;;;;5.22;2.33;;;;;;;13.67;88.75;96948.92;1718035;81;21026;-85
2022/08/30 01:13:46;;;;;;;4.10;2.52;;;;;;;13.65;89.07;96946.97;1723899;81;21951;-84
2022/08/30 01:16:12;;;;;;;5.12;2.37;;;;;;;13.61;88.96;96952.27;1729353;81;20952;-85
2022/08/30 01:18:38;;;;;;;5.83;2.60;;;;;;;13.59;89.18;96949.84;1718328;81;20956;-85
2022/08/30 01:21:45;;;;;;;6.03;2.67;;;;;;;13.58;89.45;96952.14;1728334;81;21019;-85
2022/08/30 01:24:11;;;;;;;5.58;2.67;;;;;;;13.57;89.63;96945.30;1726647;81;21083;-84
2022/08/30 01:26:37;;;;;;;9.73;3.22;;;;;;;13.55;89.90;96944.69;1719941;81;20987;-84
2022/08/30 01:29:06;;;;;;;7.58;3.00;;;;;;;13.52;90.06;96943.76;1712498;82;21379;-84
2022/08/30 01:31:35;;;;;;;5.97;3.30;;;;;;;13.48;89.90;96943.80;1728577;81;20960;-85
2022/08/30 01:34:01;;;;;;;8.00;3.33;;;;;;;13.46;90.42;96944.48;1725418;81;21040;-84
2022/08/30 01:36:27;;;;;;;6.53;3.25;;;;;;;13.45;90.68;96941.06;1723920;81;21046;-84
2022/08/30 01:38:55;;;;;;;4.97;2.83;;;;;;;13.45;90.86;96940.26;1726654;81;21059;-84
2022/08/30 01:41:25;;;;;;;7.58;3.40;;;;;;;13.44;90.90;96944.67;1712008;81;21428;-84
2022/08/30 01:43:54;;;;;;;6.42;3.10;;;;;;;13.43;91.13;96940.45;1722602;81;20979;-84
2022/08/30 01:46:23;;;;;;;5.65;3.55;;;;;;;13.44;91.13;96945.98;1727371;81;21006;-84
2022/08/30 01:48:49;;;;;;;6.80;3.08;;;;;;;13.42;91.05;96943.25;1723905;81;21018;-84
2022/08/30 01:51:14;;;;;;;5.53;2.87;;;;;;;13.41;91.18;96938.52;1726401;81;21011;-84
2022/08/30 01:53:41;;;;;;;6.90;3.25;;;;;;;13.39;91.25;96930.07;1726525;81;21413;-84
2022/08/30 01:56:08;;;;;;;5.90;3.30;;;;;;;13.37;91.15;96934.67;1716652;81;21039;-83
2022/08/30 01:58:35;;;;;;;6.67;3.15;;;;;;;13.34;91.19;96935.05;1726039;81;21349;-84
2022/08/30 02:01:03;;;;;;;5.62;3.00;;;;;;;13.33;91.46;96925.58;1730610;81;21051;-84
2022/08/30 02:03:33;;;;;;;5.55;4.00;;;;;;;13.30;91.58;96931.17;1725405;81;21063;-83
2022/08/30 02:05:57;;;;;;;7.00;3.10;;;;;;;13.29;91.66;96937.38;1722725;81;21006;-84
2022/08/30 02:08:22;;;;;;;6.65;2.80;;;;;;;13.28;91.95;96938.88;1717797;81;21023;-84
2022/08/30 02:10:48;;;;;;;6.72;3.15;;;;;;;13.27;92.39;96934.66;1721839;81;21114;-84
2022/08/30 02:13:14;;;;;;;6.12;2.98;;;;;;;13.25;92.44;96934.84;1715985;81;21074;-84
2022/08/30 02:15:39;;;;;;;7.25;3.10;;;;;;;13.23;92.26;96930.30;1714740;81;21046;-84
2022/08/30 02:18:05;;;;;;;7.80;3.05;;;;;;;13.21;92.35;96930.50;1719696;81;20985;-84
2022/08/30 02:20:31;;;;;;;5.08;3.10;;;;;;;13.23;92.52;96930.80;1722423;81;21067;-84
2022/08/30 02:22:58;;;;;;;7.87;3.42;;;;;;;13.21;92.66;96925.27;1708253;81;21073;-84
2022/08/30 02:25:23;;;;;;;9.75;3.77;;;;;;;13.20;92.75;96928.07;1718563;81;21059;-84
2022/08/30 02:27:49;;;;;;;8.73;2.90;;;;;;;13.18;92.69;96923.53;1724237;81;21543;-84
2022/08/30 02:30:15;;;;;;;8.38;3.02;;;;;;;13.18;92.89;96923.53;1728248;81;21028;-84
2022/08/30 02:32:40;;;;;;;4.92;2.80;;;;;;;13.16;92.76;96917.14;1720637;81;21066;-84
2022/08/30 02:35:07;;;;;;;4.37;2.45;;;;;;;13.18;93.05;96916.52;1707809;81;20990;-84
2022/08/30 02:37:33;;;;;;;4.17;2.33;;;;;;;13.19;93.35;96915.52;1710453;81;20968;-84
2022/08/30 02:39:59;;;;;;;4.33;2.58;;;;;;;13.21;93.41;96920.55;1717937;81;21382;-84
2022/08/30 02:42:25;;;;;;;5.22;2.55;;;;;;;13.21;93.33;96922.66;1726066;81;20961;-84
2022/08/30 02:44:50;;;;;;;3.77;2.20;;;;;;;13.23;93.14;96926.89;1716584;81;20975;-84
2022/08/30 02:47:16;;;;;;;4.90;2.40;;;;;;;13.24;93.13;96921.98;1720780;81;21349;-84
2022/08/30 02:49:42;;;;;;;6.95;2.67;;;;;;;13.24;93.16;96925.40;1709245;81;20944;-84
2022/08/30 02:52:07;;;;;;;6.45;2.95;;;;;;;13.25;92.99;96924.90;1719644;81;21108;-84
2022/08/30 02:54:34;;;;;;;8.65;3.12;;;;;;;13.26;93.25;96926.52;1708342;83;21480;-83
2022/08/30 02:57:05;;;;;;;5.75;2.42;;;;;;;13.28;93.60;96920.61;1718783;81;20995;-84
2022/08/30 02:59:31;;;;;;;5.78;2.72;;;;;;;13.28;93.71;96922.72;1720075;81;21008;-84
2022/08/30 03:01:57;;;;;;;5.87;2.85;;;;;;;13.29;93.58;96920.92;1726611;81;20959;-84
2022/08/30 03:04:23;;;;;;;6.53;2.83;;;;;;;13.28;93.57;96921.91;1724259;81;20937;-83
2022/08/30 03:06:48;;;;;;;5.78;2.95;;;;;;;13.28;93.69;96914.89;1725711;81;21418;-83
2022/08/30 03:09:14;;;;;;;7.10;2.70;;;;;;;13.29;93.83;96919.61;1724743;81;21003;-84
2022/08/30 03:11:41;;;;;;;5.37;2.98;;;;;;;13.26;93.60;96915.58;1719686;81;20952;-84
2022/08/30 03:14:07;;;;;;;6.20;2.70;;;;;;;13.26;93.75;96919.98;1724239;81;21010;-83
2022/08/30 03:16:33;;;;;;;8.80;2.70;;;;;;;13.24;93.80;96917.57;1710044;81;21020;-84
2022/08/30 03:18:58;;;;;;;6.42;3.15;;;;;;;13.23;94.04;96922.48;1715336;81;20970;-84
2022/08/30 03:21:24;;;;;;;5.30;2.50;;;;;;;13.23;94.25;96921.17;1716134;81;20991;-84
2022/08/30 03:23:50;;;;;;;4.58;2.95;;;;;;;13.24;94.39;96918.06;1721761;81;21014;-84
2022/08/30 03:26:15;;;;;;;6.42;2.90;;;;;;;13.22;94.18;96918.25;1724509;81;21630;-84
2022/08/30 03:28:41;;;;;;;6.20;2.65;;;;;;;13.20;94.24;96919.75;1728738;81;20944;-84
2022/08/30 03:31:07;;;;;;;8.20;3.20;;;;;;;13.21;94.40;96921.86;1701972;82;20982;-84
2022/08/30 03:33:34;;;;;;;6.92;2.80;;;;;;;13.20;94.46;96923.66;1723891;81;21050;-84
2022/08/30 03:36:00;;;;;;;6.58;2.92;;;;;;;13.21;94.74;96929.69;1721596;81;21015;-83
2022/08/30 03:38:25;;;;;;;5.55;3.35;;;;;;;13.19;94.49;96933.79;1723707;81;21030;-84
2022/08/30 03:40:51;;;;;;;4.80;3.00;;;;;;;13.19;94.52;96927.77;1707446;81;20955;-83
2022/08/30 03:43:18;;;;;;;5.65;3.40;;;;;;;13.17;94.57;96932.30;1721475;81;21076;-83
2022/08/30 03:45:43;;;;;;;5.83;2.95;;;;;;;13.16;94.48;96934.59;1727556;81;21043;-84
2022/08/30 03:48:09;;;;;;;5.70;3.10;;;;;;;13.12;94.40;96935.47;1736677;81;21317;-82
2022/08/30 03:50:35;;;;;;;6.58;3.27;;;;;;;13.11;94.44;96939.56;1727982;81;21324;-83
2022/08/30 03:53:01;;;;;;;4.92;3.12;;;;;;;13.11;94.83;96940.88;1724794;81;20975;-83
2022/08/30 03:55:28;;;;;;;5.45;2.52;;;;;;;13.11;94.92;96944.29;1710440;82;21337;-83
2022/08/30 03:57:55;;;;;;;5.60;2.60;;;;;;;13.10;94.87;96940.06;1687348;83;21011;-83
2022/08/30 04:00:20;;;;;;;7.35;3.02;;;;;;;13.11;95.01;96940.88;1717526;82;21008;-84
2022/08/30 04:02:46;;;;;;;5.65;3.30;;;;;;;13.11;95.15;96940.38;1688725;83;21127;-84
2022/08/30 04:05:12;;;;;;;7.35;2.92;;;;;;;13.12;95.32;96935.97;1714678;82;21037;-84
2022/08/30 04:07:38;;;;;;;7.87;3.05;;;;;;;13.14;95.50;96941.31;1712775;82;20967;-84
2022/08/30 04:10:05;;;;;;;3.67;2.50;;;;;;;13.16;95.52;96940.62;1710672;82;21327;-84
2022/08/30 04:12:31;;;;;;;5.72;2.67;;;;;;;13.18;95.59;96945.72;1711393;82;21482;-84
2022/08/30 04:14:57;;;;;;;4.08;2.45;;;;;;;13.20;95.42;96947.64;1726178;82;21055;-84
2022/08/30 04:17:23;;;;;;;5.45;3.22;;;;;;;13.20;95.59;96945.84;1724502;82;21081;-83
2022/08/30 04:19:49;;;;;;;7.53;3.02;;;;;;;13.23;95.59;96943.85;1730798;81;21338;-84
2022/08/30 04:22:15;;;;;;;6.65;3.30;;;;;;;13.22;95.58;96949.56;1717434;82;21417;-84
2022/08/30 04:24:40;;;;;;;5.35;3.12;;;;;;;13.23;95.53;96961.63;1758696;80;21011;-83
2022/08/30 04:27:07;;;;;;;5.37;2.80;;;;;;;13.23;95.59;96959.51;1754212;80;21344;-83
2022/08/30 04:29:33;;;;;;;6.70;3.35;;;;;;;13.23;95.79;96961.63;1682367;83;21007;-84
2022/08/30 04:32:00;;;;;;;7.03;3.20;;;;;;;13.23;95.96;96962.92;1711865;82;21058;-84
2022/08/30 04:34:26;;;;;;;5.00;3.08;;;;;;;13.25;95.96;96967.95;1706827;82;21429;-83
2022/08/30 04:36:52;;;;;;;6.08;3.15;;;;;;;13.25;95.99;96970.57;1719111;82;21084;-84
2022/08/30 04:39:17;;;;;;;5.42;3.35;;;;;;;13.27;96.06;96977.72;1723145;82;21062;-84
2022/08/30 04:41:43;;;;;;;6.10;3.52;;;;;;;13.28;96.31;96970.20;1715329;82;21015;-84
2022/08/30 04:44:09;;;;;;;6.60;2.98;;;;;;;13.29;96.31;96974.42;1715215;82;21075;-83
2022/08/30 04:46:35;;;;;;;5.60;3.27;;;;;;;13.31;96.48;96981.06;1724107;82;21415;-84
2022/08/30 04:49:02;;;;;;;5.35;2.70;;;;;;;13.32;96.62;96983.18;1711095;82;21034;-84
2022/08/30 04:51:28;;;;;;;5.97;3.10;;;;;;;13.32;96.75;96983.98;1704269;82;21420;-84
2022/08/30 04:53:54;;;;;;;5.05;3.52;;;;;;;13.32;96.78;96982.69;1723239;82;21015;-83
2022/08/30 04:56:23;;;;;;;5.25;3.08;;;;;;;13.34;97.00;96985.95;1715778;82;20928;-84
2022/08/30 04:58:52;;;;;;;6.58;2.87;;;;;;;13.34;97.10;96991.63;1706309;82;21007;-83
2022/08/30 05:01:26;;;;;;;5.17;2.70;;;;;;;13.34;97.26;96993.77;1711805;82;21011;-84
2022/08/30 05:03:52;;;;;;;4.62;3.15;;;;;;;13.35;97.28;96991.97;1704104;82;21043;-83
2022/08/30 05:06:17;;;;;;;3.33;2.45;;;;;;;13.36;97.46;96991.79;1720110;82;20951;-84
2022/08/30 05:08:43;;;;;;;5.15;3.10;;;;;;;13.38;97.64;96994.21;1722688;82;21035;-84
2022/08/30 05:11:09;;;;;;;5.08;2.92;;;;;;;13.39;97.61;96994.02;1722914;82;21022;-83
2022/08/30 05:13:35;;;;;;;8.35;3.55;;;;;;;13.39;97.84;96990.11;1708018;82;20979;-84
2022/08/30 05:16:01;;;;;;;5.33;3.35;;;;;;;13.43;97.76;96995.77;1717415;82;20952;-85
2022/08/30 05:18:27;;;;;;;7.90;3.40;;;;;;;13.44;97.84;96994.27;1720207;82;21066;-84
2022/08/30 05:21:12;;;;;;;6.92;3.00;;;;;;;13.46;97.65;96996.70;1717793;82;20976;-84
2022/08/30 05:23:38;;;;;;;4.50;2.72;;;;;;;13.49;97.76;97001.54;1716340;82;21496;-84
2022/08/30 05:26:08;;;;;;;7.03;3.15;;;;;;;13.53;97.81;96998.89;1699311;83;21019;-83
2022/08/30 05:28:34;;;;;;;5.50;2.87;;;;;;;13.57;97.88;97000.63;1720012;82;20960;-84
2022/08/30 05:31:00;;;;;;;6.25;2.77;;;;;;;13.60;97.88;96994.54;1722131;82;20952;-84
2022/08/30 05:33:26;;;;;;;4.05;2.92;;;;;;;13.63;97.68;96997.27;1711105;82;20943;-84
2022/08/30 05:35:52;;;;;;;5.17;3.62;;;;;;;13.66;97.42;97006.84;1699583;82;20988;-84
2022/08/30 05:38:18;;;;;;;3.90;2.83;;;;;;;13.70;97.55;97006.00;1721473;82;20960;-84
2022/08/30 05:40:43;;;;;;;4.00;2.95;;;;;;;13.73;97.63;97009.04;1713768;82;20983;-84
2022/08/30 05:43:10;;;;;;;4.53;2.87;;;;;;;13.74;97.64;97006.73;1712439;82;21393;-83
2022/08/30 05:45:36;;;;;;;3.87;2.67;;;;;;;13.78;97.74;97005.36;1718653;82;20940;-84
2022/08/30 05:48:03;;;;;;;3.75;2.87;;;;;;;13.82;97.81;97007.09;1708807;82;21063;-85
2022/08/30 05:50:29;;;;;;;5.90;3.00;;;;;;;13.86;97.77;97007.55;1725972;83;20988;-85
2022/08/30 05:52:55;;;;;;;6.03;3.17;;;;;;;13.90;97.85;97016.62;1720621;81;21570;-85
2022/08/30 05:55:21;;;;;;;4.85;3.05;;;;;;;13.93;97.93;97013.14;1718167;81;21043;-84
2022/08/30 05:57:47;;;;;;;5.12;3.25;;;;;;;13.97;98.06;97018.30;1715997;81;21496;-83
2022/08/30 06:00:16;;;;;;;6.15;3.25;;;;;;;14.01;98.09;97017.45;1718283;81;21016;-83
2022/08/30 06:02:42;;;;;;;4.30;2.98;;;;;;;14.05;97.99;97016.88;1738274;82;20993;-83
2022/08/30 06:05:10;;;;;;;5.08;3.40;;;;;;;14.07;97.95;97018.80;1706544;82;21003;-83
2022/08/30 06:07:35;;;;;;;6.25;3.00;;;;;;;14.11;98.11;97016.61;1730272;81;21070;-83
2022/08/30 06:10:01;;;;;;;4.22;2.87;;;;;;;14.14;98.39;97014.92;1731993;81;21380;-83
2022/08/30 06:12:27;;;;;;;5.87;3.40;;;;;;;14.17;98.34;97011.95;1735147;82;20955;-83
2022/08/30 06:14:53;;;;;;;6.78;4.12;;;;;;;14.19;98.37;97015.19;1731960;81;21369;-83
2022/08/30 06:17:19;;;;;;;4.60;3.10;;;;;;;14.24;98.71;97014.11;1730425;81;21018;-83
2022/08/30 06:19:44;;;;;;;8.35;3.87;;;;;;;14.29;98.59;97020.87;1728751;81;21398;-83
2022/08/30 06:22:10;;;;;;;6.17;4.08;;;;;;;14.35;98.49;97016.72;1710765;81;20971;-83
2022/08/30 06:24:36;;;;;;;6.50;3.65;;;;;;;14.40;98.43;97020.37;1707378;83;21022;-83
2022/08/30 06:27:03;;;;;;;9.00;4.20;;;;;;;14.46;98.49;97011.48;1658883;83;20952;-83
2022/08/30 06:29:29;;;;;;;8.23;3.65;;;;;;;14.50;98.49;97011.43;1728713;81;20968;-83
2022/08/30 06:31:56;;;;;;;5.83;3.92;;;;;;;14.54;98.34;97012.16;1738747;82;21346;-83
2022/08/30 06:34:22;;;;;;;5.80;3.60;;;;;;;14.57;98.12;97017.00;1728864;81;21048;-83
2022/08/30 06:36:48;;;;;;;6.90;3.70;;;;;;;14.63;98.07;97020.14;1725684;81;20960;-83
2022/08/30 06:39:13;;;;;;;9.10;3.80;;;;;;;14.67;97.92;97021.41;1713573;81;21334;-82
2022/08/30 06:41:40;;;;;;;6.25;3.40;;;;;;;14.71;97.74;97018.70;1723040;81;21023;-82
2022/08/30 06:44:05;;;;;;;6.42;3.92;;;;;;;14.76;97.81;97012.08;1723691;81;21023;-83
2022/08/30 06:46:33;;;;;;;4.62;3.12;;;;;;;14.82;98.08;97015.26;1726104;81;21327;-81
2022/08/30 06:49:00;;;;;;;6.67;4.05;;;;;;;14.86;97.96;97009.94;1722815;81;21422;-83
2022/08/30 06:51:31;;;;;;;6.37;3.98;;;;;;;14.90;98.04;97014.58;1723919;81;21051;-82
2022/08/30 06:53:58;;;;;;;7.12;3.75;;;;;;;14.96;97.76;97016.41;1700048;80;21007;-83
2022/08/30 06:56:24;;;;;;;8.15;4.67;;;;;;;15.02;97.29;97016.16;1713967;83;20971;-83
2022/08/30 06:58:50;;;;;;;5.50;3.40;;;;;;;15.08;96.88;97019.30;1714862;82;21031;-84
2022/08/30 07:01:21;;;;;;;5.90;3.77;;;;;;;15.15;97.56;97026.70;1716274;82;20994;-83
2022/08/30 07:03:48;;;;;;;6.92;3.42;;;;;;;15.22;97.63;97017.55;1703431;83;20994;-83
2022/08/30 07:06:14;;;;;;;6.05;4.58;;;;;;;15.25;97.70;97015.34;1728010;82;20960;-84
2022/08/30 07:08:40;;;;;;;9.40;4.17;;;;;;;15.33;97.16;97020.94;1711889;82;20989;-84
2022/08/30 07:11:06;;;;;;;7.83;5.90;;;;;;;15.40;97.45;97025.68;1719637;82;20987;-84
2022/08/30 07:13:33;;;;;;;7.25;4.10;;;;;;;15.47;96.57;97027.03;1717185;82;20960;-84
2022/08/30 07:15:59;;;;;;;6.40;4.30;;;;;;;15.52;97.21;97022.80;1714059;83;21409;-84
2022/08/30 07:21:14;;;;;;;7.15;3.85;;;;;;;15.63;96.89;97028.02;1720323;82;21011;-84
2022/08/30 07:23:41;;;;;;;5.75;3.83;;;;;;;15.69;96.92;97026.41;1716821;83;21043;-84
2022/08/30 07:26:10;;;;;;;6.75;4.17;;;;;;;15.75;97.02;97035.58;1718277;83;21074;-85
2022/08/30 07:28:38;;;;;;;6.95;4.62;;;;;;;15.81;96.80;97036.63;1720010;83;21429;-85
2022/08/30 07:31:06;;;;;;;6.97;4.90;;;;;;;15.83;95.76;97035.92;1721550;83;21058;-84
2022/08/30 07:33:31;;;;;;;6.97;5.15;;;;;;;15.92;95.93;97041.27;1716864;83;21984;-84
2022/08/30 07:35:58;;;;;;;8.28;5.67;;;;;;;15.98;95.04;97036.55;1719750;83;21018;-84
2022/08/30 07:38:25;;;;;;;6.10;5.40;;;;;;;16.06;93.57;97036.84;1712414;83;20978;-84
2022/08/30 07:40:51;;;;;;;9.43;4.95;;;;;;;16.13;93.91;97037.68;1709572;83;21007;-84
2022/08/30 07:43:17;;;;;;;8.95;5.67;;;;;;;16.19;92.74;97038.98;1716001;82;20943;-84
2022/08/30 07:45:43;;;;;;;8.38;4.83;;;;;;;16.27;92.42;97034.06;1694872;83;20996;-84
2022/08/30 07:48:10;;;;;;;8.35;4.75;;;;;;;16.35;91.84;97033.04;1718746;82;20991;-84
2022/08/30 07:50:37;;;;;;;8.53;5.05;;;;;;;16.38;91.28;97031.31;1715486;83;22046;-84
2022/08/30 07:53:03;;;;;;;8.13;5.05;;;;;;;16.47;92.15;97034.05;1714086;81;21031;-84
2022/08/30 07:55:29;;;;;;;8.25;4.78;;;;;;;16.53;90.00;97034.55;1730499;80;21401;-84
2022/08/30 07:57:55;;;;;;;9.63;5.25;;;;;;;16.61;90.65;97035.66;1729610;81;20971;-85
2022/08/30 08:00:21;;;;;;;6.53;4.20;;;;;;;16.68;89.85;97038.30;1727335;82;20983;-84
2022/08/30 08:02:46;;;;;;;6.70;4.40;;;;;;;16.71;90.16;97037.38;1728351;81;21003;-84
2022/08/30 08:05:15;;;;;;;7.47;4.35;;;;;;;16.73;91.00;97035.86;1718528;81;21066;-86
2022/08/30 08:07:40;;;;;;;7.30;3.98;;;;;;;16.73;92.25;97041.11;1723646;81;21406;-86
2022/08/30 08:10:07;;;;;;;7.62;4.37;;;;;;;16.74;92.24;97044.03;1729246;81;20991;-85
2022/08/30 08:12:35;;;;;;;5.90;3.90;;;;;;;16.75;92.60;97047.76;1720995;81;21409;-86
2022/08/30 08:15:01;;;;;;;7.25;4.70;;;;;;;16.76;92.55;97050.72;1729553;81;20963;-86
2022/08/30 08:17:27;;;;;;;6.35;3.75;;;;;;;16.78;92.66;97051.82;1724295;81;21020;-86
2022/08/30 08:19:53;;;;;;;7.30;3.90;;;;;;;16.80;92.37;97054.53;1740560;81;20983;-86
2022/08/30 08:22:19;;;;;;;7.28;3.70;;;;;;;16.83;91.62;97052.00;1719616;83;21884;-87
2022/08/30 08:24:45;;;;;;;6.25;4.03;;;;;;;16.86;91.62;97051.59;1702734;82;21089;-86
2022/08/30 08:27:11;;;;;;;6.72;3.98;;;;;;;16.92;92.11;97053.89;1716735;81;21019;-85
2022/08/30 08:29:36;;;;;;;5.87;4.30;;;;;;;16.96;92.14;97057.23;1720509;81;21422;-86
2022/08/30 08:32:02;;;;;;;6.47;3.87;;;;;;;17.06;92.81;97056.28;1747890;81;20932;-86
2022/08/30 08:34:28;;;;;;;7.47;3.90;;;;;;;17.17;92.96;97054.05;1710688;81;21068;-86
2022/08/30 08:36:54;;;;;;;7.17;4.17;;;;;;;17.25;92.07;97061.20;1721261;81;21000;-85
2022/08/30 08:39:20;;;;;;;5.42;3.35;;;;;;;17.31;90.82;97058.25;1726664;82;21058;-85
2022/08/30 08:42:15;;;;;;;7.47;4.35;;;;;;;17.34;91.66;97059.14;1707041;81;21103;-84
2022/08/30 08:45:10;;;;;;;7.12;3.90;;;;;;;17.42;91.95;97056.80;1736799;81;21430;-84
2022/08/30 08:47:48;;;;;;;6.62;4.00;;;;;;;17.60;92.40;97059.55;1715410;81;21442;-84
2022/08/30 08:53:33;;;;;;;6.90;4.12;;;;;;;17.89;89.48;97068.20;1727828;81;20956;-84
2022/08/30 08:53:35;;;;;;;5.10;3.50;;;;;;;18.13;86.92;97060.59;1698527;83;21423;-84
2022/08/30 08:56:15;;;;;;;9.35;4.53;;;;;;;18.37;85.19;97062.94;1724997;81;21090;-85
2022/08/30 08:58:43;;;;;;;7.53;3.83;;;;;;;18.49;83.51;97059.91;1715885;81;20995;-84
2022/08/30 09:01:10;;;;;;;5.80;3.55;;;;;;;18.57;83.97;97053.89;1723908;81;21362;-84
2022/08/30 09:03:36;;;;;;;5.53;3.58;;;;;;;18.59;85.13;97052.35;1723142;81;20994;-85
2022/08/30 09:06:22;;;;;;;5.58;3.20;;;;;;;18.67;84.93;97056.55;1729971;81;20992;-85
2022/08/30 09:08:48;;;;;;;8.28;3.95;;;;;;;18.72;84.15;97053.59;1732468;81;21069;-85
2022/08/30 09:11:24;;;;;;;5.60;3.33;;;;;;;18.79;85.61;97053.00;1725338;81;21325;-86
2022/08/30 09:13:50;;;;;;;8.73;3.98;;;;;;;18.84;84.34;97050.52;1726875;81;21010;-84
2022/08/30 09:16:57;;;;;;;7.00;4.45;;;;;;;18.93;83.60;97044.98;1724757;81;21055;-86
2022/08/30 09:19:37;;;;;;;6.85;4.70;;;;;;;19.07;83.57;97049.89;1722589;81;21024;-85
2022/08/30 09:22:19;;;;;;;9.70;4.35;;;;;;;19.22;81.85;97046.09;1713365;81;20980;-86
2022/08/30 09:24:46;;;;;;;;;;;;;;;19.35;81.41;97049.36;1732170;81;21042;-84
2022/08/30 09:27:25;;;;;;;6.17;4.05;;;;;;;19.45;79.98;97048.34;1715717;82;20158;-86
2022/08/30 09:30:07;;;;;;;8.83;4.50;;;;;;;19.58;80.88;97043.45;1731409;81;20971;-85
2022/08/30 09:32:40;;;;;;;11.20;4.10;;;;;;;19.58;79.39;97044.77;1731917;82;21927;-85
2022/08/30 09:35:12;;;;;;;9.40;4.12;;;;;;;19.45;80.00;97047.02;1732307;81;20978;-85
2022/08/30 09:37:52;;;;;;;7.85;4.95;;;;;;;19.34;79.41;97041.68;1750256;82;21434;-85
2022/08/30 09:40:30;;;;;;;7.45;3.40;;;;;;;19.26;78.92;97044.11;1729450;83;20971;-85
2022/08/30 09:43:12;;;;;;;6.95;4.53;;;;;;;19.37;80.52;97042.06;1745093;81;20987;-86
2022/08/30 09:45:41;;;;;;;7.20;4.05;;;;;;;19.47;80.53;97034.42;1699562;83;21035;-85
2022/08/30 09:48:39;;;;;;;8.50;3.75;;;;;;;19.60;79.25;97035.32;1719659;83;20992;-85
2022/08/30 09:51:37;;;;;;;8.83;4.00;;;;;;;19.71;76.80;97037.21;1702191;83;21084;-86
2022/08/30 09:54:23;;;;;;;8.58;4.53;;;;;;;19.79;78.27;97037.69;1729639;82;21028;-85
2022/08/30 09:57:24;;;;;;;7.62;4.40;;;;;;;19.64;75.91;97039.11;1714951;83;20980;-86
2022/08/30 10:00:09;;;;;;;7.37;4.00;;;;;;;19.46;75.29;97039.92;1712129;84;21015;-86
2022/08/30 10:02:55;;;;;;;9.65;4.10;;;;;;;19.36;76.18;97029.92;1714687;84;21019;-86
2022/08/30 10:05:47;;;;;;;7.92;4.00;;;;;;;19.49;76.47;97034.20;1697755;83;21061;-85
2022/08/30 10:08:25;;;;;;;5.87;3.83;;;;;;;19.69;76.04;97033.48;1748233;81;20934;-85
2022/08/30 10:11:01;;;;;;;7.53;3.80;;;;;;;19.91;77.06;97036.93;1729409;83;20967;-85
2022/08/30 10:13:44;;;;;;;7.37;4.10;;;;;;;20.07;77.17;97034.45;1715978;84;21019;-84
2022/08/30 10:16:41;;;;;;;5.28;3.42;;;;;;;20.01;75.43;97036.69;1728587;83;20964;-85
2022/08/30 10:19:43;;;;;;;6.95;3.77;;;;;;;19.94;77.19;97038.59;1729396;83;21059;-85
2022/08/30 10:22:36;;;;;;;5.67;4.05;;;;;;;19.85;76.44;97035.17;1727873;83;21071;-85
2022/08/30 10:25:18;;;;;;;8.38;3.70;;;;;;;19.77;78.45;97034.98;1727548;82;21062;-84
2022/08/30 10:28:02;;;;;;;5.83;3.75;;;;;;;19.78;78.81;97032.12;1728003;82;21095;-85
2022/08/30 10:30:30;;;;;;;7.10;3.52;;;;;;;19.82;76.79;97032.48;1728083;83;21035;-86
2022/08/30 10:33:07;;;;;;;7.12;3.98;;;;;;;19.77;76.42;97025.76;1728923;83;21031;-86
2022/08/30 10:35:41;;;;;;;4.28;3.12;;;;;;;19.85;77.72;97032.53;1729255;82;21015;-86
2022/08/30 10:38:13;;;;;;;7.30;3.22;;;;;;;20.06;78.28;97034.69;1729044;83;20979;-86
2022/08/30 10:43:54;;;;;;;6.67;3.08;;;;;;;20.32;73.34;97026.86;1715109;84;20987;-85
2022/08/30 10:47:05;;;;;;;5.10;2.90;;;;;;;20.52;72.59;97031.36;1695436;84;21026;-85
2022/08/30 10:49:35;;;;;;;4.28;3.10;;;;;;;20.66;71.52;97027.46;1725348;82;21119;-85
2022/08/30 10:52:34;;;;;;;5.62;3.10;;;;;;;20.59;73.86;97032.55;1724906;82;21054;-85
2022/08/30 10:55:08;;;;;;;4.45;2.70;;;;;;;20.52;73.14;97032.67;1706395;83;21106;-85
2022/08/30 10:57:34;;;;;;;3.50;2.80;;;;;;;20.38;72.66;97028.61;1728382;83;21027;-85
2022/08/30 11:00:07;;;;;;;4.80;3.00;;;;;;;20.32;73.08;97028.18;1728477;82;20971;-85
2022/08/30 11:03:02;;;;;;;5.97;3.37;;;;;;;20.39;72.96;97018.34;1728504;82;20975;-85
2022/08/30 11:06:10;;;;;;;5.58;3.47;;;;;;;20.49;73.39;97013.83;1728629;83;20967;-85
2022/08/30 11:08:44;;;;;;;5.10;3.45;;;;;;;20.43;71.09;97012.11;1690198;83;20956;-85
2022/08/30 11:11:40;;;;;;;6.00;3.20;;;;;;;20.42;71.11;97010.50;1725551;82;20999;-85
2022/08/30 11:14:06;;;;;;;6.90;3.70;;;;;;;20.57;72.11;97010.34;1716694;83;21419;-85
2022/08/30 11:16:36;;;;;;;6.00;3.42;;;;;;;20.71;70.71;97014.88;1706873;83;21020;-85
2022/08/30 11:19:02;;;;;;;5.58;3.50;;;;;;;20.78;69.62;97006.83;1711888;84;21014;-85
2022/08/30 11:21:37;;;;;;;6.75;4.30;;;;;;;20.88;69.41;97006.54;1712002;82;21030;-85
2022/08/30 11:24:21;;;;;;;6.90;3.45;;;;;;;20.83;69.16;97014.36;1725436;82;21350;-85
2022/08/30 11:26:51;;;;;;;4.47;2.80;;;;;;;20.95;68.94;97013.81;1694686;83;21075;-85
2022/08/30 11:29:31;;;;;;;3.70;3.00;;;;;;;20.98;68.08;97005.41;1725652;83;21359;-85
2022/08/30 11:32:23;;;;;;;6.28;3.10;;;;;;;21.15;69.60;97004.21;1725680;82;21052;-85
2022/08/30 11:34:53;;;;;;;3.83;3.02;;;;;;;21.36;68.36;96999.35;1695353;83;21010;-85
2022/08/30 11:37:41;;;;;;;5.83;3.08;;;;;;;21.53;67.76;97002.33;1725411;83;20991;-85
2022/08/30 11:40:11;;;;;;;4.55;4.03;;;;;;;21.68;67.25;96999.69;1705438;83;20986;-85
2022/08/30 11:42:45;;;;;;;5.30;3.72;;;;;;;21.79;65.33;96997.48;1721761;81;21019;-86
2022/08/30 11:45:34;;;;;;;6.87;4.72;;;;;;;21.80;66.30;96997.77;1711454;82;20994;-85
2022/08/30 11:48:04;;;;;;;6.25;3.55;;;;;;;21.73;65.18;96998.45;1694924;83;21032;-84
2022/08/30 11:50:41;;;;;;;5.80;4.12;;;;;;;21.43;65.60;96996.84;1725679;83;21086;-85
2022/08/30 11:53:53;;;;;;;5.92;4.08;;;;;;;21.25;67.09;96997.81;1713095;82;21081;-85
2022/08/30 11:56:32;;;;;;;5.28;4.42;;;;;;;21.23;68.37;96994.58;1719019;82;21098;-85